Sakigake — JD3847 — position and weather

sailwx.info

Track history (hours):
 
Tides and Currents Weather Stations Pressure Air Temp Water Temp Dewpoint Dewpoint Depression Visibility Wind Speed Wind Dir Waves Ship Positions

Sakigake

Last reported at 2018-Jan-23 00:00 UTC. Time now 2018-Jan-23 00:11 UTC.
Position N 35°29' E 139°48'.

Length 38 m; draft 4 m.

Type: Tug. MMSI: 431006608.

Date/timePositionNaut miles runAvg speedWind from/ knotsBaromVisibWave heightAir tempDewpointWater temp
2018-Jan-23 00:00N 35°29' E 139°48'1 2.8
2018-Jan-22 23:30N 35°28' E 139°47'4 8.9
2018-Jan-22 23:00N 35°27' E 139°42'2 3.9
2018-Jan-22 22:31N 35°27' E 139°39'0 0.0
2018-Jan-22 22:00N 35°27' E 139°39'0 0.0
2018-Jan-22 21:30N 35°27' E 139°39'0 0.0
2018-Jan-22 21:00N 35°27' E 139°39'0 0.0
2018-Jan-22 20:30N 35°27' E 139°39'0 0.0
2018-Jan-22 20:01N 35°27' E 139°39'0 0.0
2018-Jan-22 19:30N 35°27' E 139°39'0 0.0
2018-Jan-22 19:00N 35°27' E 139°39'0 0.0
2018-Jan-22 18:30N 35°27' E 139°39'0 0.0
2018-Jan-22 18:01N 35°27' E 139°39'0 0.0
2018-Jan-22 17:30N 35°27' E 139°39'0 0.0
2018-Jan-22 17:00N 35°27' E 139°39'0 0.0
2018-Jan-22 16:31N 35°27' E 139°39'0 0.0
2018-Jan-22 16:01N 35°27' E 139°39'0 0.0
2018-Jan-22 15:30N 35°27' E 139°39'0 0.0
2018-Jan-22 15:00N 35°27' E 139°39'0 0.0
2018-Jan-22 14:31N 35°27' E 139°39'0 0.0
2018-Jan-22 14:00N 35°27' E 139°39'0 0.0
2018-Jan-22 13:31N 35°27' E 139°39'0 0.0
2018-Jan-22 13:00N 35°27' E 139°39'0 0.0
2018-Jan-22 12:31N 35°27' E 139°39'0 0.0
2018-Jan-22 12:00N 35°27' E 139°39'0 0.0
2018-Jan-22 11:30N 35°27' E 139°39'0 0.0
2018-Jan-22 11:00N 35°27' E 139°39'0 0.0
2018-Jan-22 10:30N 35°27' E 139°39'2 3.3
2018-Jan-22 10:00N 35°28' E 139°41'1 1.6
2018-Jan-22 09:30N 35°28' E 139°41'0 0.0
2018-Jan-22 09:00N 35°28' E 139°41'1 1.3
2018-Jan-22 08:31N 35°28' E 139°42'2 4.1
2018-Jan-22 08:00N 35°26' E 139°44'2 3.1
2018-Jan-22 07:31N 35°27' E 139°43'3 5.5
2018-Jan-22 07:01N 35°27' E 139°39'0 0.0
2018-Jan-22 06:30N 35°27' E 139°39'0 0.1
2018-Jan-22 06:00N 35°27' E 139°39'2 4.6
2018-Jan-22 05:30N 35°28' E 139°42'0 0.2
2018-Jan-22 05:01N 35°28' E 139°42'2 5.0
2018-Jan-22 04:30N 35°26' E 139°44'2 3.0
2018-Jan-22 04:00N 35°27' E 139°42'3 5.1
2018-Jan-22 03:30N 35°27' E 139°39'0 0.0
2018-Jan-22 03:00N 35°27' E 139°39'0 0.0
2018-Jan-22 02:31N 35°27' E 139°39'0 0.0
2018-Jan-22 02:00N 35°27' E 139°39'0 0.0
2018-Jan-22 01:30N 35°27' E 139°39'0 0.0
2018-Jan-22 01:00N 35°27' E 139°39'0 0.0
2018-Jan-22 00:30N 35°27' E 139°39'0 0.0
2018-Jan-22 00:01N 35°27' E 139°39'0 0.0
2018-Jan-21 23:30N 35°27' E 139°39'0 0.0
2018-Jan-21 23:00N 35°27' E 139°39'0 0.0
2018-Jan-21 22:30N 35°27' E 139°39'0 0.0
2018-Jan-21 22:00N 35°27' E 139°39'0 0.0
2018-Jan-21 21:30N 35°27' E 139°39'0 0.0
2018-Jan-21 21:00N 35°27' E 139°39'0 0.0
2018-Jan-21 20:30N 35°27' E 139°39'0 0.0
2018-Jan-21 20:00N 35°27' E 139°39'0 0.0
2018-Jan-21 19:30N 35°27' E 139°39'0 0.0
2018-Jan-21 19:00N 35°27' E 139°39'0 0.0
2018-Jan-21 18:31N 35°27' E 139°39'0 0.0
2018-Jan-21 18:00N 35°27' E 139°39'0 0.0
2018-Jan-21 17:31N 35°27' E 139°39'0 0.0
2018-Jan-21 17:00N 35°27' E 139°39'0 0.0
2018-Jan-21 16:30N 35°27' E 139°39'0 0.0
2018-Jan-21 16:00N 35°27' E 139°39'0 0.0
2018-Jan-21 15:31N 35°27' E 139°39'0 0.0
2018-Jan-21 15:00N 35°27' E 139°39'0 0.0
2018-Jan-21 14:30N 35°27' E 139°39'0 0.0
2018-Jan-21 14:00N 35°27' E 139°39'0 0.0
2018-Jan-21 13:30N 35°27' E 139°39'0 0.0
2018-Jan-21 13:00N 35°27' E 139°39'0 0.0
2018-Jan-21 12:30N 35°27' E 139°39'0 0.0
2018-Jan-21 12:01N 35°27' E 139°39'0 0.0
2018-Jan-21 11:30N 35°27' E 139°39'0 0.0
2018-Jan-21 11:00N 35°27' E 139°39'0 0.0
2018-Jan-21 10:31N 35°27' E 139°39'0 0.0
2018-Jan-21 10:00N 35°27' E 139°39'0 0.0
2018-Jan-21 09:31N 35°27' E 139°39'0 0.0
2018-Jan-21 09:00N 35°27' E 139°39'0 0.0
2018-Jan-21 08:30N 35°27' E 139°39'0 0.0
2018-Jan-21 08:00N 35°27' E 139°39'0 0.0
2018-Jan-21 07:30N 35°27' E 139°39'0 0.0
2018-Jan-21 07:00N 35°27' E 139°39'0 0.0
2018-Jan-21 06:30N 35°27' E 139°39'0 0.0
2018-Jan-21 06:00N 35°27' E 139°39'0 0.5
2018-Jan-21 05:30N 35°27' E 139°39'0 0.0
2018-Jan-21 05:00N 35°27' E 139°39'0 0.0
2018-Jan-21 04:30N 35°27' E 139°39'0 0.2
2018-Jan-21 04:00N 35°27' E 139°39'3 5.5
2018-Jan-21 03:30N 35°27' E 139°43'0 0.9
2018-Jan-21 03:01N 35°28' E 139°43'0 0.1
2018-Jan-21 02:30N 35°28' E 139°43'0 0.0
2018-Jan-21 02:01N 35°28' E 139°43'1 1.9
2018-Jan-21 01:30N 35°27' E 139°42'3 5.3
2018-Jan-21 01:01N 35°24' E 139°42'3 5.9
2018-Jan-21 00:30N 35°25' E 139°38'0 0.4
2018-Jan-21 00:00N 35°24' E 139°39'3 6.5
2018-Jan-20 23:30N 35°22' E 139°42'1 2.3
2018-Jan-20 23:00N 35°24' E 139°42'4 8.3
2018-Jan-20 22:31N 35°27' E 139°40'0 0.9
2018-Jan-20 22:00N 35°27' E 139°39'0 0.1
2018-Jan-20 21:30N 35°27' E 139°39'0 0.0
2018-Jan-20 21:00N 35°27' E 139°39'0 0.0
2018-Jan-20 20:30N 35°27' E 139°39'0 0.0
2018-Jan-20 20:00N 35°27' E 139°39'0 0.0
2018-Jan-20 19:30N 35°27' E 139°39'0 0.0
2018-Jan-20 19:00N 35°27' E 139°39'0 0.0
2018-Jan-20 18:30N 35°27' E 139°39'0 0.1
2018-Jan-20 18:00N 35°27' E 139°39'0 0.1
2018-Jan-20 17:30N 35°27' E 139°39'0 0.0
2018-Jan-20 17:00N 35°27' E 139°39'0 0.0
2018-Jan-20 16:30N 35°27' E 139°39'0 0.0
2018-Jan-20 16:00N 35°27' E 139°39'0 0.0
2018-Jan-20 15:30N 35°27' E 139°39'0 0.0
2018-Jan-20 15:00N 35°27' E 139°39'0 0.0
2018-Jan-20 14:30N 35°27' E 139°39'0 0.0
2018-Jan-20 14:00N 35°27' E 139°39'0 0.0
2018-Jan-20 13:30N 35°27' E 139°39'0 0.0
2018-Jan-20 13:00N 35°27' E 139°39'0 0.0
2018-Jan-20 12:30N 35°27' E 139°39'0 0.1
2018-Jan-20 12:00N 35°27' E 139°39'0 0.1
2018-Jan-20 11:30N 35°27' E 139°39'0 0.0
2018-Jan-20 11:00N 35°27' E 139°39'0 0.0
2018-Jan-20 10:30N 35°27' E 139°39'0 0.0
2018-Jan-20 10:00N 35°27' E 139°39'0 0.0
2018-Jan-20 09:30N 35°27' E 139°39'0 0.0
2018-Jan-20 09:00N 35°27' E 139°39'0 0.1
2018-Jan-20 08:30N 35°27' E 139°39'0 0.1
2018-Jan-20 08:00N 35°27' E 139°39'0 0.0
2018-Jan-20 07:30N 35°27' E 139°39'0 0.1
2018-Jan-20 07:00N 35°27' E 139°39'0 0.1
2018-Jan-20 06:30N 35°27' E 139°39'0 0.1
2018-Jan-20 06:00N 35°27' E 139°39'0 0.0
2018-Jan-20 05:30N 35°27' E 139°39'0 0.0
2018-Jan-20 05:00N 35°27' E 139°39'0 0.0
2018-Jan-20 04:30N 35°27' E 139°39'0 0.0
2018-Jan-20 04:00N 35°27' E 139°39'0 0.0
2018-Jan-20 03:30N 35°27' E 139°39'2 4.2
2018-Jan-20 03:00N 35°27' E 139°42'2 4.8
2018-Jan-20 02:30N 35°28' E 139°44'0 0.0
2018-Jan-20 02:00N 35°28' E 139°44'0 0.0
2018-Jan-20 01:30N 35°28' E 139°44'0 0.1
2018-Jan-20 01:00N 35°28' E 139°44'1 2.2
2018-Jan-20 00:30N 35°27' E 139°44'1 1.1
2018-Jan-20 00:01N 35°27' E 139°45'4 8.1
2018-Jan-19 23:30N 35°27' E 139°40'1 2.7
2018-Jan-19 23:00N 35°28' E 139°41'0 0.0
2018-Jan-19 22:30N 35°28' E 139°41'1 2.0
2018-Jan-19 22:00N 35°28' E 139°42'3 5.7
2018-Jan-19 21:31N 35°26' E 139°45'2 3.7
2018-Jan-19 21:00N 35°27' E 139°42'3 5.1
2018-Jan-19 20:30N 35°27' E 139°39'0 0.0
2018-Jan-19 20:00N 35°27' E 139°39'0 0.0
2018-Jan-19 19:30N 35°27' E 139°39'0 0.0
2018-Jan-19 19:00N 35°27' E 139°39'0 0.0
2018-Jan-19 18:30N 35°27' E 139°39'0 0.0
2018-Jan-19 18:00N 35°27' E 139°39'0 0.0
2018-Jan-19 17:30N 35°27' E 139°39'0 0.0
2018-Jan-19 17:00N 35°27' E 139°39'0 0.0
2018-Jan-19 16:30N 35°27' E 139°39'0 0.0
2018-Jan-19 16:00N 35°27' E 139°39'0 0.0
2018-Jan-19 15:30N 35°27' E 139°39'0 0.0
2018-Jan-19 15:00N 35°27' E 139°39'0 0.0
2018-Jan-19 14:30N 35°27' E 139°39'0 0.0
2018-Jan-19 14:00N 35°27' E 139°39'0 0.0
2018-Jan-19 13:30N 35°27' E 139°39'0 0.0
2018-Jan-19 13:00N 35°27' E 139°39'0 0.0
2018-Jan-19 12:30N 35°27' E 139°39'0 0.0
2018-Jan-19 12:00N 35°27' E 139°39'0 0.0
2018-Jan-19 11:30N 35°27' E 139°39'0 0.0
2018-Jan-19 11:00N 35°27' E 139°39'0 0.0
2018-Jan-19 10:30N 35°27' E 139°39'0 0.0
2018-Jan-19 10:00N 35°27' E 139°39'0 0.0
2018-Jan-19 09:30N 35°27' E 139°39'0 0.0
2018-Jan-19 09:00N 35°27' E 139°39'0 0.0
2018-Jan-19 08:30N 35°27' E 139°39'2 4.4
2018-Jan-19 08:00N 35°27' E 139°42'4 8.8
2018-Jan-19 07:30N 35°29' E 139°47'4 8.6
2018-Jan-19 07:00N 35°30' E 139°52'5 9.0
2018-Jan-19 06:29N 35°29' E 139°57'1 1.4
2018-Jan-19 06:00N 35°28' E 139°58'0 0.0
2018-Jan-19 05:30N 35°28' E 139°58'0 0.4
2018-Jan-19 05:00N 35°29' E 139°58'2 3.7
2018-Jan-19 04:29N 35°29' E 139°56'1 1.2
2018-Jan-19 03:51N 35°30' E 139°56'0 0.0
2018-Jan-19 03:30N 35°30' E 139°56'1 1.9
2018-Jan-19 03:00N 35°31' E 139°56'0 0.0
2018-Jan-19 02:29N 35°31' E 139°56'0 0.4
2018-Jan-19 01:34N 35°31' E 139°56'0 1.9
2018-Jan-19 01:30N 35°31' E 139°56'1 3.0
2018-Jan-19 01:00N 35°30' E 139°54'1 1.4
2018-Jan-19 00:30N 35°29' E 139°54'1 1.5
2018-Jan-18 23:57N 35°29' E 139°53'4 8.3
2018-Jan-18 23:30N 35°27' E 139°49'4 8.3
2018-Jan-18 23:00N 35°27' E 139°44'4 7.1
2018-Jan-18 22:30N 35°27' E 139°39'0 0.0
2018-Jan-18 22:00N 35°27' E 139°39'0 0.0
2018-Jan-18 21:30N 35°27' E 139°39'0 0.0
2018-Jan-18 21:00N 35°27' E 139°39'0 0.0
2018-Jan-18 20:30N 35°27' E 139°39'0 0.0
2018-Jan-18 20:00N 35°27' E 139°39'0 0.0
2018-Jan-18 19:30N 35°27' E 139°39'0 0.0
2018-Jan-18 19:00N 35°27' E 139°39'0 0.0
2018-Jan-18 18:30N 35°27' E 139°39'0 0.0
2018-Jan-18 18:00N 35°27' E 139°39'0 0.0
2018-Jan-18 17:30N 35°27' E 139°39'0 0.0
2018-Jan-18 17:00N 35°27' E 139°39'0 0.0
2018-Jan-18 16:30N 35°27' E 139°39'0 0.0
2018-Jan-18 16:00N 35°27' E 139°39'0 0.0
2018-Jan-18 15:30N 35°27' E 139°39'0 0.0
2018-Jan-18 15:00N 35°27' E 139°39'0 0.0
2018-Jan-18 14:30N 35°27' E 139°39'0 0.0
2018-Jan-18 14:00N 35°27' E 139°39'0 0.0
2018-Jan-18 13:30N 35°27' E 139°39'0 0.0
2018-Jan-18 13:00N 35°27' E 139°39'0 0.0
2018-Jan-18 12:30N 35°27' E 139°39'0 0.0
2018-Jan-18 12:00N 35°27' E 139°39'0 0.0
2018-Jan-18 11:30N 35°27' E 139°39'0 0.0
2018-Jan-18 11:00N 35°27' E 139°39'0 0.0
2018-Jan-18 10:30N 35°27' E 139°39'0 0.0
2018-Jan-18 10:00N 35°27' E 139°39'0 0.0
2018-Jan-18 09:29N 35°27' E 139°39'0 0.0
2018-Jan-18 09:00N 35°27' E 139°39'0 0.0
2018-Jan-18 08:30N 35°27' E 139°39'0 0.0
2018-Jan-18 08:00N 35°27' E 139°39'1 2.2
2018-Jan-18 07:30N 35°27' E 139°41'4 7.3
2018-Jan-18 07:00N 35°28' E 139°45'2 3.2
2018-Jan-18 06:30N 35°30' E 139°46'1 2.7
2018-Jan-18 06:00N 35°29' E 139°45'4 7.6
2018-Jan-18 05:30N 35°27' E 139°40'1 1.4
2018-Jan-18 05:00N 35°27' E 139°40'0 0.0
2018-Jan-18 04:30N 35°27' E 139°40'0 0.0
2018-Jan-18 04:00N 35°27' E 139°40'0 0.0
2018-Jan-18 03:30N 35°27' E 139°40'0 0.0
2018-Jan-18 03:00N 35°27' E 139°40'0 0.0
2018-Jan-18 02:30N 35°27' E 139°40'0 0.0
2018-Jan-18 02:00N 35°27' E 139°40'0 0.0
2018-Jan-18 01:30N 35°27' E 139°40'0 0.0
2018-Jan-18 01:00N 35°27' E 139°40'0 0.0
2018-Jan-18 00:00N 35°27' E 139°40'0 0.0
2018-Jan-17 23:57N 35°27' E 139°40'  
Track history (hours):
 
Tides and Currents Weather Stations Pressure Air Temp Water Temp Dewpoint Dewpoint Depression Visibility Wind Speed Wind Dir Waves Ship Positions

Sakigake

Last reported at 2018-Jan-23 00:00 UTC. Time now 2018-Jan-23 00:11 UTC.
Position N 35°29' E 139°48'.

Length 38 m; draft 4 m.

Type: Tug. MMSI: 431006608.

Date/timePositionNaut miles runAvg speedWind from/ knotsBaromVisibWave heightAir tempDewpointWater temp
2018-Jan-23 00:00N 35°29' E 139°48'1 2.8
2018-Jan-22 23:30N 35°28' E 139°47'4 8.9
2018-Jan-22 23:00N 35°27' E 139°42'2 3.9
2018-Jan-22 22:31N 35°27' E 139°39'0 0.0
2018-Jan-22 22:00N 35°27' E 139°39'0 0.0
2018-Jan-22 21:30N 35°27' E 139°39'0 0.0
2018-Jan-22 21:00N 35°27' E 139°39'0 0.0
2018-Jan-22 20:30N 35°27' E 139°39'0 0.0
2018-Jan-22 20:01N 35°27' E 139°39'0 0.0
2018-Jan-22 19:30N 35°27' E 139°39'0 0.0
2018-Jan-22 19:00N 35°27' E 139°39'0 0.0
2018-Jan-22 18:30N 35°27' E 139°39'0 0.0
2018-Jan-22 18:01N 35°27' E 139°39'0 0.0
2018-Jan-22 17:30N 35°27' E 139°39'0 0.0
2018-Jan-22 17:00N 35°27' E 139°39'0 0.0
2018-Jan-22 16:31N 35°27' E 139°39'0 0.0
2018-Jan-22 16:01N 35°27' E 139°39'0 0.0
2018-Jan-22 15:30N 35°27' E 139°39'0 0.0
2018-Jan-22 15:00N 35°27' E 139°39'0 0.0
2018-Jan-22 14:31N 35°27' E 139°39'0 0.0
2018-Jan-22 14:00N 35°27' E 139°39'0 0.0
2018-Jan-22 13:31N 35°27' E 139°39'0 0.0
2018-Jan-22 13:00N 35°27' E 139°39'0 0.0
2018-Jan-22 12:31N 35°27' E 139°39'0 0.0
2018-Jan-22 12:00N 35°27' E 139°39'0 0.0
2018-Jan-22 11:30N 35°27' E 139°39'0 0.0
2018-Jan-22 11:00N 35°27' E 139°39'0 0.0
2018-Jan-22 10:30N 35°27' E 139°39'2 3.3
2018-Jan-22 10:00N 35°28' E 139°41'1 1.6
2018-Jan-22 09:30N 35°28' E 139°41'0 0.0
2018-Jan-22 09:00N 35°28' E 139°41'1 1.3
2018-Jan-22 08:31N 35°28' E 139°42'2 4.1
2018-Jan-22 08:00N 35°26' E 139°44'2 3.1
2018-Jan-22 07:31N 35°27' E 139°43'3 5.5
2018-Jan-22 07:01N 35°27' E 139°39'0 0.0
2018-Jan-22 06:30N 35°27' E 139°39'0 0.1
2018-Jan-22 06:00N 35°27' E 139°39'2 4.6
2018-Jan-22 05:30N 35°28' E 139°42'0 0.2
2018-Jan-22 05:01N 35°28' E 139°42'2 5.0
2018-Jan-22 04:30N 35°26' E 139°44'2 3.0
2018-Jan-22 04:00N 35°27' E 139°42'3 5.1
2018-Jan-22 03:30N 35°27' E 139°39'0 0.0
2018-Jan-22 03:00N 35°27' E 139°39'0 0.0
2018-Jan-22 02:31N 35°27' E 139°39'0 0.0
2018-Jan-22 02:00N 35°27' E 139°39'0 0.0
2018-Jan-22 01:30N 35°27' E 139°39'0 0.0
2018-Jan-22 01:00N 35°27' E 139°39'0 0.0
2018-Jan-22 00:30N 35°27' E 139°39'0 0.0
2018-Jan-22 00:01N 35°27' E 139°39'0 0.0
2018-Jan-21 23:30N 35°27' E 139°39'0 0.0
2018-Jan-21 23:00N 35°27' E 139°39'0 0.0
2018-Jan-21 22:30N 35°27' E 139°39'0 0.0
2018-Jan-21 22:00N 35°27' E 139°39'0 0.0
2018-Jan-21 21:30N 35°27' E 139°39'0 0.0
2018-Jan-21 21:00N 35°27' E 139°39'0 0.0
2018-Jan-21 20:30N 35°27' E 139°39'0 0.0
2018-Jan-21 20:00N 35°27' E 139°39'0 0.0
2018-Jan-21 19:30N 35°27' E 139°39'0 0.0
2018-Jan-21 19:00N 35°27' E 139°39'0 0.0
2018-Jan-21 18:31N 35°27' E 139°39'0 0.0
2018-Jan-21 18:00N 35°27' E 139°39'0 0.0
2018-Jan-21 17:31N 35°27' E 139°39'0 0.0
2018-Jan-21 17:00N 35°27' E 139°39'0 0.0
2018-Jan-21 16:30N 35°27' E 139°39'0 0.0
2018-Jan-21 16:00N 35°27' E 139°39'0 0.0
2018-Jan-21 15:31N 35°27' E 139°39'0 0.0
2018-Jan-21 15:00N 35°27' E 139°39'0 0.0
2018-Jan-21 14:30N 35°27' E 139°39'0 0.0
2018-Jan-21 14:00N 35°27' E 139°39'0 0.0
2018-Jan-21 13:30N 35°27' E 139°39'0 0.0
2018-Jan-21 13:00N 35°27' E 139°39'0 0.0
2018-Jan-21 12:30N 35°27' E 139°39'0 0.0
2018-Jan-21 12:01N 35°27' E 139°39'0 0.0
2018-Jan-21 11:30N 35°27' E 139°39'0 0.0
2018-Jan-21 11:00N 35°27' E 139°39'0 0.0
2018-Jan-21 10:31N 35°27' E 139°39'0 0.0
2018-Jan-21 10:00N 35°27' E 139°39'0 0.0
2018-Jan-21 09:31N 35°27' E 139°39'0 0.0
2018-Jan-21 09:00N 35°27' E 139°39'0 0.0
2018-Jan-21 08:30N 35°27' E 139°39'0 0.0
2018-Jan-21 08:00N 35°27' E 139°39'0 0.0
2018-Jan-21 07:30N 35°27' E 139°39'0 0.0
2018-Jan-21 07:00N 35°27' E 139°39'0 0.0
2018-Jan-21 06:30N 35°27' E 139°39'0 0.0
2018-Jan-21 06:00N 35°27' E 139°39'0 0.5
2018-Jan-21 05:30N 35°27' E 139°39'0 0.0
2018-Jan-21 05:00N 35°27' E 139°39'0 0.0
2018-Jan-21 04:30N 35°27' E 139°39'0 0.2
2018-Jan-21 04:00N 35°27' E 139°39'3 5.5
2018-Jan-21 03:30N 35°27' E 139°43'0 0.9
2018-Jan-21 03:01N 35°28' E 139°43'0 0.1
2018-Jan-21 02:30N 35°28' E 139°43'0 0.0
2018-Jan-21 02:01N 35°28' E 139°43'1 1.9
2018-Jan-21 01:30N 35°27' E 139°42'3 5.3
2018-Jan-21 01:01N 35°24' E 139°42'3 5.9
2018-Jan-21 00:30N 35°25' E 139°38'0 0.4
2018-Jan-21 00:00N 35°24' E 139°39'3 6.5
2018-Jan-20 23:30N 35°22' E 139°42'1 2.3
2018-Jan-20 23:00N 35°24' E 139°42'4 8.3
2018-Jan-20 22:31N 35°27' E 139°40'0 0.9
2018-Jan-20 22:00N 35°27' E 139°39'0 0.1
2018-Jan-20 21:30N 35°27' E 139°39'0 0.0
2018-Jan-20 21:00N 35°27' E 139°39'0 0.0
2018-Jan-20 20:30N 35°27' E 139°39'0 0.0
2018-Jan-20 20:00N 35°27' E 139°39'0 0.0
2018-Jan-20 19:30N 35°27' E 139°39'0 0.0
2018-Jan-20 19:00N 35°27' E 139°39'0 0.0
2018-Jan-20 18:30N 35°27' E 139°39'0 0.1
2018-Jan-20 18:00N 35°27' E 139°39'0 0.1
2018-Jan-20 17:30N 35°27' E 139°39'0 0.0
2018-Jan-20 17:00N 35°27' E 139°39'0 0.0
2018-Jan-20 16:30N 35°27' E 139°39'0 0.0
2018-Jan-20 16:00N 35°27' E 139°39'0 0.0
2018-Jan-20 15:30N 35°27' E 139°39'0 0.0
2018-Jan-20 15:00N 35°27' E 139°39'0 0.0
2018-Jan-20 14:30N 35°27' E 139°39'0 0.0
2018-Jan-20 14:00N 35°27' E 139°39'0 0.0
2018-Jan-20 13:30N 35°27' E 139°39'0 0.0
2018-Jan-20 13:00N 35°27' E 139°39'0 0.0
2018-Jan-20 12:30N 35°27' E 139°39'0 0.1
2018-Jan-20 12:00N 35°27' E 139°39'0 0.1
2018-Jan-20 11:30N 35°27' E 139°39'0 0.0
2018-Jan-20 11:00N 35°27' E 139°39'0 0.0
2018-Jan-20 10:30N 35°27' E 139°39'0 0.0
2018-Jan-20 10:00N 35°27' E 139°39'0 0.0
2018-Jan-20 09:30N 35°27' E 139°39'0 0.0
2018-Jan-20 09:00N 35°27' E 139°39'0 0.1
2018-Jan-20 08:30N 35°27' E 139°39'0 0.1
2018-Jan-20 08:00N 35°27' E 139°39'0 0.0
2018-Jan-20 07:30N 35°27' E 139°39'0 0.1
2018-Jan-20 07:00N 35°27' E 139°39'0 0.1
2018-Jan-20 06:30N 35°27' E 139°39'0 0.1
2018-Jan-20 06:00N 35°27' E 139°39'0 0.0
2018-Jan-20 05:30N 35°27' E 139°39'0 0.0
2018-Jan-20 05:00N 35°27' E 139°39'0 0.0
2018-Jan-20 04:30N 35°27' E 139°39'0 0.0
2018-Jan-20 04:00N 35°27' E 139°39'0 0.0
2018-Jan-20 03:30N 35°27' E 139°39'2 4.2
2018-Jan-20 03:00N 35°27' E 139°42'2 4.8
2018-Jan-20 02:30N 35°28' E 139°44'0 0.0
2018-Jan-20 02:00N 35°28' E 139°44'0 0.0
2018-Jan-20 01:30N 35°28' E 139°44'0 0.1
2018-Jan-20 01:00N 35°28' E 139°44'1 2.2
2018-Jan-20 00:30N 35°27' E 139°44'1 1.1
2018-Jan-20 00:01N 35°27' E 139°45'4 8.1
2018-Jan-19 23:30N 35°27' E 139°40'1 2.7
2018-Jan-19 23:00N 35°28' E 139°41'0 0.0
2018-Jan-19 22:30N 35°28' E 139°41'1 2.0
2018-Jan-19 22:00N 35°28' E 139°42'3 5.7
2018-Jan-19 21:31N 35°26' E 139°45'2 3.7
2018-Jan-19 21:00N 35°27' E 139°42'3 5.1
2018-Jan-19 20:30N 35°27' E 139°39'0 0.0
2018-Jan-19 20:00N 35°27' E 139°39'0 0.0
2018-Jan-19 19:30N 35°27' E 139°39'0 0.0
2018-Jan-19 19:00N 35°27' E 139°39'0 0.0
2018-Jan-19 18:30N 35°27' E 139°39'0 0.0
2018-Jan-19 18:00N 35°27' E 139°39'0 0.0
2018-Jan-19 17:30N 35°27' E 139°39'0 0.0
2018-Jan-19 17:00N 35°27' E 139°39'0 0.0
2018-Jan-19 16:30N 35°27' E 139°39'0 0.0
2018-Jan-19 16:00N 35°27' E 139°39'0 0.0
2018-Jan-19 15:30N 35°27' E 139°39'0 0.0
2018-Jan-19 15:00N 35°27' E 139°39'0 0.0
2018-Jan-19 14:30N 35°27' E 139°39'0 0.0
2018-Jan-19 14:00N 35°27' E 139°39'0 0.0
2018-Jan-19 13:30N 35°27' E 139°39'0 0.0
2018-Jan-19 13:00N 35°27' E 139°39'0 0.0
2018-Jan-19 12:30N 35°27' E 139°39'0 0.0
2018-Jan-19 12:00N 35°27' E 139°39'0 0.0
2018-Jan-19 11:30N 35°27' E 139°39'0 0.0
2018-Jan-19 11:00N 35°27' E 139°39'0 0.0
2018-Jan-19 10:30N 35°27' E 139°39'0 0.0
2018-Jan-19 10:00N 35°27' E 139°39'0 0.0
2018-Jan-19 09:30N 35°27' E 139°39'0 0.0
2018-Jan-19 09:00N 35°27' E 139°39'0 0.0
2018-Jan-19 08:30N 35°27' E 139°39'2 4.4
2018-Jan-19 08:00N 35°27' E 139°42'4 8.8
2018-Jan-19 07:30N 35°29' E 139°47'4 8.6
2018-Jan-19 07:00N 35°30' E 139°52'5 9.0
2018-Jan-19 06:29N 35°29' E 139°57'1 1.4
2018-Jan-19 06:00N 35°28' E 139°58'0 0.0
2018-Jan-19 05:30N 35°28' E 139°58'0 0.4
2018-Jan-19 05:00N 35°29' E 139°58'2 3.7
2018-Jan-19 04:29N 35°29' E 139°56'1 1.2
2018-Jan-19 03:51N 35°30' E 139°56'0 0.0
2018-Jan-19 03:30N 35°30' E 139°56'1 1.9
2018-Jan-19 03:00N 35°31' E 139°56'0 0.0
2018-Jan-19 02:29N 35°31' E 139°56'0 0.4
2018-Jan-19 01:34N 35°31' E 139°56'0 1.9
2018-Jan-19 01:30N 35°31' E 139°56'1 3.0
2018-Jan-19 01:00N 35°30' E 139°54'1 1.4
2018-Jan-19 00:30N 35°29' E 139°54'1 1.5
2018-Jan-18 23:57N 35°29' E 139°53'4 8.3
2018-Jan-18 23:30N 35°27' E 139°49'4 8.3
2018-Jan-18 23:00N 35°27' E 139°44'4 7.1
2018-Jan-18 22:30N 35°27' E 139°39'0 0.0
2018-Jan-18 22:00N 35°27' E 139°39'0 0.0
2018-Jan-18 21:30N 35°27' E 139°39'0 0.0
2018-Jan-18 21:00N 35°27' E 139°39'0 0.0
2018-Jan-18 20:30N 35°27' E 139°39'0 0.0
2018-Jan-18 20:00N 35°27' E 139°39'0 0.0
2018-Jan-18 19:30N 35°27' E 139°39'0 0.0
2018-Jan-18 19:00N 35°27' E 139°39'0 0.0
2018-Jan-18 18:30N 35°27' E 139°39'0 0.0
2018-Jan-18 18:00N 35°27' E 139°39'0 0.0
2018-Jan-18 17:30N 35°27' E 139°39'0 0.0
2018-Jan-18 17:00N 35°27' E 139°39'0 0.0
2018-Jan-18 16:30N 35°27' E 139°39'0 0.0
2018-Jan-18 16:00N 35°27' E 139°39'0 0.0
2018-Jan-18 15:30N 35°27' E 139°39'0 0.0
2018-Jan-18 15:00N 35°27' E 139°39'0 0.0
2018-Jan-18 14:30N 35°27' E 139°39'0 0.0
2018-Jan-18 14:00N 35°27' E 139°39'0 0.0
2018-Jan-18 13:30N 35°27' E 139°39'0 0.0
2018-Jan-18 13:00N 35°27' E 139°39'0 0.0
2018-Jan-18 12:30N 35°27' E 139°39'0 0.0
2018-Jan-18 12:00N 35°27' E 139°39'0 0.0
2018-Jan-18 11:30N 35°27' E 139°39'0 0.0
2018-Jan-18 11:00N 35°27' E 139°39'0 0.0
2018-Jan-18 10:30N 35°27' E 139°39'0 0.0
2018-Jan-18 10:00N 35°27' E 139°39'0 0.0
2018-Jan-18 09:29N 35°27' E 139°39'0 0.0
2018-Jan-18 09:00N 35°27' E 139°39'0 0.0
2018-Jan-18 08:30N 35°27' E 139°39'0 0.0
2018-Jan-18 08:00N 35°27' E 139°39'1 2.2
2018-Jan-18 07:30N 35°27' E 139°41'4 7.3
2018-Jan-18 07:00N 35°28' E 139°45'2 3.2
2018-Jan-18 06:30N 35°30' E 139°46'1 2.7
2018-Jan-18 06:00N 35°29' E 139°45'4 7.6
2018-Jan-18 05:30N 35°27' E 139°40'1 1.4
2018-Jan-18 05:00N 35°27' E 139°40'0 0.0
2018-Jan-18 04:30N 35°27' E 139°40'0 0.0
2018-Jan-18 04:00N 35°27' E 139°40'0 0.0
2018-Jan-18 03:30N 35°27' E 139°40'0 0.0
2018-Jan-18 03:00N 35°27' E 139°40'0 0.0
2018-Jan-18 02:30N 35°27' E 139°40'0 0.0
2018-Jan-18 02:00N 35°27' E 139°40'0 0.0
2018-Jan-18 01:30N 35°27' E 139°40'0 0.0
2018-Jan-18 01:00N 35°27' E 139°40'0 0.0
2018-Jan-18 00:00N 35°27' E 139°40'0 0.0
2018-Jan-17 23:57N 35°27' E 139°40'  

Dump ship's entire track history